Time;durP1;ratioP1;P1;durP2;ratioP2;P2;SDS_P1;SDS_P2;PMS_P1;PMS_P2;Temp;Humidity;BMP_temperature;BMP_pressure;BME280_temperature;BME280_humidity;BME280_pressure;Samples;Min_cycle;Max_cycle;Signal;HPM_P1;HPM_P2
2021/11/07 00:01:27;;;;;;;62.38;26.55;;;;;;;;;;5070945;28;20048;-61
2021/11/07 00:04:01;;;;;;;60.92;26.60;;;;;;;;;;5073510;28;20080;-62
2021/11/07 00:06:32;;;;;;;69.18;29.25;;;;;;;;;;5074329;28;20044;-61
2021/11/07 00:09:07;;;;;;;60.28;28.30;;;;;;;;;;5074473;28;20094;-61
2021/11/07 00:11:36;;;;;;;59.60;27.73;;;;;;;;;;5074590;28;20056;-62
2021/11/07 00:14:06;;;;;;;54.88;25.92;;;;;;;;;;5074461;28;20505;-62
2021/11/07 00:16:36;;;;;;;52.22;24.50;;;;;;;;;;5074160;28;20044;-61
2021/11/07 00:19:11;;;;;;;49.78;22.85;;;;;;;;;;5074350;28;20083;-62
2021/11/07 00:21:45;;;;;;;57.60;22.88;;;;;;;;;;5074037;28;20057;-63
2021/11/07 00:24:15;;;;;;;47.42;21.88;;;;;;;;;;5074195;28;20063;-61
2021/11/07 00:26:54;;;;;;;47.40;23.27;;;;;;;;;;5073772;28;20060;-60
2021/11/07 00:29:26;;;;;;;55.25;23.88;;;;;;;;;;5074350;28;20469;-62
2021/11/07 00:32:01;;;;;;;51.95;24.15;;;;;;;;;;5074275;28;20064;-63
2021/11/07 00:35:06;;;;;;;52.17;24.38;;;;;;;;;;5074025;28;20049;-62
2021/11/07 00:37:35;;;;;;;58.83;23.92;;;;;;;;;;5073835;28;20056;-61
2021/11/07 00:40:20;;;;;;;53.88;24.50;;;;;;;;;;5074412;28;20574;-62
2021/11/07 00:42:53;;;;;;;43.75;22.00;;;;;;;;;;5074268;28;20412;-61
2021/11/07 00:45:40;;;;;;;53.10;22.08;;;;;;;;;;5073631;28;20139;-62
2021/11/07 00:48:20;;;;;;;52.05;23.60;;;;;;;;;;5073851;28;20049;-62
2021/11/07 00:50:57;;;;;;;43.83;20.77;;;;;;;;;;5073712;28;20146;-59
2021/11/07 00:53:40;;;;;;;43.83;20.70;;;;;;;;;;5073705;28;20095;-61
2021/11/07 00:56:16;;;;;;;46.33;21.23;;;;;;;;;;5073382;28;20056;-62
2021/11/07 00:58:54;;;;;;;49.78;20.38;;;;;;;;;;5073768;28;20477;-61
2021/11/07 01:01:24;;;;;;;51.50;21.27;;;;;;;;;;5073517;28;20048;-62
2021/11/07 01:03:52;;;;;;;42.17;19.70;;;;;;;;;;5073332;28;20094;-62
2021/11/07 01:06:20;;;;;;;47.35;19.30;;;;;;;;;;5073225;28;20044;-60
2021/11/07 01:08:48;;;;;;;60.95;21.25;;;;;;;;;;5073260;28;20040;-62
2021/11/07 01:11:15;;;;;;;48.38;19.42;;;;;;;;;;5073664;28;20532;-63
2021/11/07 01:13:45;;;;;;;51.25;19.95;;;;;;;;;;5073077;28;20041;-61
2021/11/07 01:16:12;;;;;;;48.30;19.73;;;;;;;;;;5072959;28;20053;-62
2021/11/07 01:18:40;;;;;;;50.28;19.55;;;;;;;;;;5072978;28;20048;-62
2021/11/07 01:21:12;;;;;;;51.25;22.02;;;;;;;;;;5072999;28;20151;-62
2021/11/07 01:23:43;;;;;;;51.13;20.80;;;;;;;;;;5073269;28;20465;-61
2021/11/07 01:26:15;;;;;;;53.97;22.63;;;;;;;;;;5072716;28;20516;-61
2021/11/07 01:28:47;;;;;;;52.15;20.40;;;;;;;;;;5072877;28;20111;-61
2021/11/07 01:31:14;;;;;;;53.95;21.75;;;;;;;;;;5072678;28;20062;-62
2021/11/07 01:33:43;;;;;;;52.53;21.27;;;;;;;;;;5072762;28;20052;-61
2021/11/07 01:36:23;;;;;;;50.67;21.77;;;;;;;;;;5072414;28;20048;-62
2021/11/07 01:38:53;;;;;;;52.78;20.48;;;;;;;;;;5072820;28;20044;-62
2021/11/07 01:41:25;;;;;;;54.05;21.40;;;;;;;;;;5072524;28;20052;-63
2021/11/07 01:43:58;;;;;;;56.42;20.58;;;;;;;;;;5072770;28;20084;-62
2021/11/07 01:46:28;;;;;;;60.13;22.70;;;;;;;;;;5072220;28;20051;-62
2021/11/07 01:49:03;;;;;;;52.53;21.10;;;;;;;;;;5072710;28;20048;-62
2021/11/07 01:51:32;;;;;;;57.05;22.83;;;;;;;;;;5072367;28;20048;-62
2021/11/07 01:54:08;;;;;;;55.97;21.75;;;;;;;;;;5072484;28;20079;-61
2021/11/07 01:56:35;;;;;;;64.60;22.30;;;;;;;;;;5072364;28;20052;-61
2021/11/07 01:59:03;;;;;;;63.17;25.70;;;;;;;;;;5072532;28;20055;-61
2021/11/07 02:01:30;;;;;;;64.47;24.35;;;;;;;;;;5072258;28;20382;-60
2021/11/07 02:03:59;;;;;;;59.72;22.73;;;;;;;;;;5072290;28;20127;-60
2021/11/07 02:06:26;;;;;;;62.42;23.45;;;;;;;;;;5071760;28;20113;-62
2021/11/07 02:08:53;;;;;;;62.33;24.88;;;;;;;;;;5072162;28;20045;-61
2021/11/07 02:11:21;;;;;;;63.13;24.30;;;;;;;;;;5072153;28;20094;-62
2021/11/07 02:13:49;;;;;;;66.88;24.73;;;;;;;;;;5072143;28;20083;-62
2021/11/07 02:16:17;;;;;;;60.50;23.20;;;;;;;;;;5071796;28;20045;-61
2021/11/07 02:18:45;;;;;;;64.10;22.77;;;;;;;;;;5072015;28;20048;-62
2021/11/07 02:21:13;;;;;;;56.58;21.38;;;;;;;;;;5072102;28;20560;-61
2021/11/07 02:23:41;;;;;;;59.95;21.67;;;;;;;;;;5071875;28;20080;-61
2021/11/07 02:26:09;;;;;;;57.42;22.52;;;;;;;;;;5071142;28;20053;-61
2021/11/07 02:28:43;;;;;;;59.75;22.80;;;;;;;;;;5071766;28;20045;-61
2021/11/07 02:31:13;;;;;;;60.25;23.02;;;;;;;;;;5071664;28;20048;-61
2021/11/07 02:33:40;;;;;;;53.55;20.75;;;;;;;;;;5071413;28;20060;-61
2021/11/07 02:36:10;;;;;;;53.50;21.40;;;;;;;;;;5071523;28;20051;-61
2021/11/07 02:38:39;;;;;;;54.83;20.70;;;;;;;;;;5071894;28;20055;-62
2021/11/07 02:41:08;;;;;;;48.92;19.63;;;;;;;;;;5071766;28;20047;-61
2021/11/07 02:46:57;;;;;;;43.88;17.42;;;;;;;;;;5070046;28;20039;-61
2021/11/07 02:49:24;;;;;;;45.60;16.98;;;;;;;;;;5071560;28;20456;-61
2021/11/07 02:51:53;;;;;;;48.58;18.25;;;;;;;;;;5071830;28;20044;-59
2021/11/07 02:54:21;;;;;;;44.38;18.08;;;;;;;;;;5071463;28;20044;-60
2021/11/07 02:56:51;;;;;;;48.50;19.30;;;;;;;;;;5071212;28;20059;-61
2021/11/07 02:59:20;;;;;;;47.35;19.17;;;;;;;;;;5071881;28;20071;-60
2021/11/07 03:01:47;;;;;;;46.40;18.55;;;;;;;;;;5071351;28;20050;-61
2021/11/07 03:04:15;;;;;;;45.75;18.17;;;;;;;;;;5071416;28;20412;-61
2021/11/07 03:06:43;;;;;;;45.40;19.23;;;;;;;;;;5071363;28;20071;-61
2021/11/07 03:09:15;;;;;;;54.58;19.73;;;;;;;;;;5071729;28;20040;-61
2021/11/07 03:11:46;;;;;;;42.58;16.92;;;;;;;;;;5071486;28;20052;-61
2021/11/07 03:14:17;;;;;;;40.25;16.27;;;;;;;;;;5071507;28;20049;-62
2021/11/07 03:16:46;;;;;;;42.72;16.77;;;;;;;;;;5071176;28;20460;-61
2021/11/07 03:19:14;;;;;;;40.97;17.02;;;;;;;;;;5071273;28;20053;-61
2021/11/07 03:21:42;;;;;;;42.45;16.83;;;;;;;;;;5071360;28;20055;-62
2021/11/07 03:24:09;;;;;;;36.90;16.73;;;;;;;;;;5071232;28;20508;-61
2021/11/07 03:26:37;;;;;;;36.08;15.90;;;;;;;;;;5070959;28;20048;-61
2021/11/07 03:29:08;;;;;;;34.53;15.20;;;;;;;;;;5071447;28;20430;-62
2021/11/07 03:31:43;;;;;;;33.03;14.60;;;;;;;;;;5071000;28;20121;-61
2021/11/07 03:34:16;;;;;;;31.00;13.00;;;;;;;;;;5071635;28;20498;-62
2021/11/07 03:36:48;;;;;;;30.25;13.07;;;;;;;;;;5071500;28;20052;-62
2021/11/07 03:39:16;;;;;;;25.73;13.23;;;;;;;;;;5074441;28;20139;-62
2021/11/07 03:41:45;;;;;;;31.00;14.05;;;;;;;;;;5075115;28;20040;-61
2021/11/07 03:44:16;;;;;;;30.75;14.48;;;;;;;;;;5074786;28;20053;-62
2021/11/07 03:46:44;;;;;;;35.95;15.45;;;;;;;;;;5074582;28;20051;-61
2021/11/07 03:49:12;;;;;;;31.35;13.80;;;;;;;;;;5074615;28;20052;-62
2021/11/07 03:51:39;;;;;;;31.02;13.63;;;;;;;;;;5074848;28;20572;-60
2021/11/07 03:54:12;;;;;;;34.60;15.40;;;;;;;;;;5074627;28;20045;-62
2021/11/07 03:56:39;;;;;;;35.95;15.73;;;;;;;;;;5074312;28;20052;-62
2021/11/07 03:59:07;;;;;;;34.05;15.27;;;;;;;;;;5074687;28;20402;-62
2021/11/07 04:01:37;;;;;;;33.85;14.52;;;;;;;;;;5074455;28;20052;-62
2021/11/07 04:04:05;;;;;;;34.83;14.27;;;;;;;;;;5074538;28;20048;-61
2021/11/07 04:06:32;;;;;;;41.05;15.48;;;;;;;;;;5074163;28;20049;-60
2021/11/07 04:09:00;;;;;;;43.63;15.80;;;;;;;;;;5074275;28;20052;-62
2021/11/07 04:11:27;;;;;;;40.25;15.43;;;;;;;;;;5074307;28;20147;-62
2021/11/07 04:13:54;;;;;;;40.65;16.20;;;;;;;;;;5074345;28;20052;-62
2021/11/07 04:16:21;;;;;;;41.67;16.55;;;;;;;;;;5074078;28;20056;-62
2021/11/07 04:18:50;;;;;;;37.65;15.45;;;;;;;;;;5074139;28;20045;-62
2021/11/07 04:21:17;;;;;;;45.33;17.27;;;;;;;;;;5074161;28;20472;-62
2021/11/07 04:23:44;;;;;;;47.30;17.02;;;;;;;;;;5074172;28;20056;-61
2021/11/07 04:26:11;;;;;;;45.53;17.42;;;;;;;;;;5074243;28;20054;-64
2021/11/07 04:28:38;;;;;;;49.75;17.20;;;;;;;;;;5073978;28;20133;-64
2021/11/07 04:31:06;;;;;;;44.72;16.88;;;;;;;;;;5073730;28;20050;-63
2021/11/07 04:33:34;;;;;;;44.58;17.70;;;;;;;;;;5074006;28;20060;-63
2021/11/07 04:36:03;;;;;;;45.67;17.95;;;;;;;;;;5074380;28;20131;-64
2021/11/07 04:38:30;;;;;;;42.17;16.38;;;;;;;;;;5074003;28;20055;-64
2021/11/07 04:40:58;;;;;;;49.75;18.02;;;;;;;;;;5073909;28;20058;-64
2021/11/07 04:43:25;;;;;;;46.92;18.10;;;;;;;;;;5074115;28;20512;-64
2021/11/07 04:45:52;;;;;;;42.70;16.83;;;;;;;;;;5073774;28;20459;-65
2021/11/07 04:48:19;;;;;;;42.03;16.60;;;;;;;;;;5073429;28;20097;-64
2021/11/07 04:50:48;;;;;;;47.53;17.98;;;;;;;;;;5073871;28;20489;-64
2021/11/07 04:53:21;;;;;;;43.47;17.08;;;;;;;;;;5073745;28;20049;-63
2021/11/07 04:55:49;;;;;;;46.20;18.92;;;;;;;;;;5073862;28;20051;-62
2021/11/07 04:58:17;;;;;;;47.85;17.25;;;;;;;;;;5073649;28;20050;-64
2021/11/07 05:00:46;;;;;;;42.78;17.23;;;;;;;;;;5073529;28;20459;-64
2021/11/07 05:03:14;;;;;;;50.65;18.10;;;;;;;;;;5073468;28;20048;-63
2021/11/07 05:05:43;;;;;;;45.95;18.40;;;;;;;;;;5073496;28;20455;-64
2021/11/07 05:08:10;;;;;;;40.88;16.58;;;;;;;;;;5073535;28;20060;-64
2021/11/07 05:10:40;;;;;;;41.40;16.63;;;;;;;;;;5073244;28;20052;-63
2021/11/07 05:13:10;;;;;;;37.87;15.90;;;;;;;;;;5073315;28;20056;-64
2021/11/07 05:15:37;;;;;;;39.00;16.38;;;;;;;;;;5073228;28;20051;-63
2021/11/07 05:18:05;;;;;;;45.13;16.33;;;;;;;;;;5073254;28;20058;-65
2021/11/07 05:20:32;;;;;;;43.67;16.00;;;;;;;;;;5072976;28;20044;-63
2021/11/07 05:22:59;;;;;;;44.03;16.83;;;;;;;;;;5073130;28;20045;-64
2021/11/07 05:25:26;;;;;;;41.65;18.05;;;;;;;;;;5073063;28;20048;-64
2021/11/07 05:27:55;;;;;;;41.60;15.50;;;;;;;;;;5073459;28;20051;-63
2021/11/07 05:30:23;;;;;;;38.28;15.68;;;;;;;;;;5072807;28;20048;-63
2021/11/07 05:32:50;;;;;;;42.08;17.25;;;;;;;;;;5073233;28;20041;-64
2021/11/07 05:35:20;;;;;;;40.20;15.57;;;;;;;;;;5072717;28;20045;-62
2021/11/07 05:37:48;;;;;;;38.30;16.27;;;;;;;;;;5072843;28;20083;-62
2021/11/07 05:40:17;;;;;;;40.60;16.35;;;;;;;;;;5072599;28;20072;-63
2021/11/07 05:42:44;;;;;;;36.40;15.13;;;;;;;;;;5072671;28;20044;-63
2021/11/07 05:45:13;;;;;;;40.60;16.73;;;;;;;;;;5072341;28;20052;-63
2021/11/07 05:47:41;;;;;;;35.22;13.90;;;;;;;;;;5072605;28;20044;-64
2021/11/07 05:50:10;;;;;;;34.92;14.55;;;;;;;;;;5072549;28;20520;-63
2021/11/07 05:52:37;;;;;;;37.92;15.75;;;;;;;;;;5072375;28;20044;-64
2021/11/07 05:55:06;;;;;;;32.63;14.48;;;;;;;;;;5072409;28;20058;-64
2021/11/07 05:57:33;;;;;;;34.13;14.85;;;;;;;;;;5072410;28;20135;-64
2021/11/07 06:00:01;;;;;;;31.27;13.20;;;;;;;;;;5071765;28;20106;-63
2021/11/07 06:02:30;;;;;;;35.90;15.73;;;;;;;;;;5072125;28;20056;-63
2021/11/07 06:04:58;;;;;;;33.55;14.68;;;;;;;;;;5072087;28;20044;-64
2021/11/07 06:07:25;;;;;;;33.42;14.70;;;;;;;;;;5072380;28;20052;-64
2021/11/07 06:09:53;;;;;;;36.80;15.13;;;;;;;;;;5072322;28;20490;-63
2021/11/07 06:12:20;;;;;;;35.38;14.63;;;;;;;;;;5072055;28;20055;-64
2021/11/07 06:14:48;;;;;;;39.90;15.85;;;;;;;;;;5072239;28;20489;-63
2021/11/07 06:17:15;;;;;;;39.38;16.08;;;;;;;;;;5072079;28;20044;-63
2021/11/07 06:19:45;;;;;;;44.40;16.70;;;;;;;;;;5072069;28;20050;-64
2021/11/07 06:22:12;;;;;;;41.50;17.23;;;;;;;;;;5072578;28;20512;-64
2021/11/07 06:24:40;;;;;;;43.28;16.58;;;;;;;;;;5071885;28;20059;-63
2021/11/07 06:27:07;;;;;;;38.78;15.38;;;;;;;;;;5072025;28;20052;-63
2021/11/07 06:29:35;;;;;;;38.35;15.95;;;;;;;;;;5072373;28;20437;-64
2021/11/07 06:32:02;;;;;;;40.33;15.90;;;;;;;;;;5071738;28;20071;-64
2021/11/07 06:34:29;;;;;;;41.33;15.07;;;;;;;;;;5072085;28;20048;-62
2021/11/07 06:36:58;;;;;;;35.50;15.48;;;;;;;;;;5071793;28;20052;-64
2021/11/07 06:39:25;;;;;;;39.85;16.70;;;;;;;;;;5071906;28;20485;-64
2021/11/07 06:41:52;;;;;;;37.80;14.90;;;;;;;;;;5071663;28;20044;-64
2021/11/07 06:44:19;;;;;;;40.97;16.73;;;;;;;;;;5071708;28;20044;-63
2021/11/07 06:46:46;;;;;;;40.65;15.85;;;;;;;;;;5072015;28;20044;-63
2021/11/07 06:49:15;;;;;;;39.28;16.52;;;;;;;;;;5072301;28;20051;-63
2021/11/07 06:51:43;;;;;;;46.50;16.05;;;;;;;;;;5071792;28;20083;-63
2021/11/07 06:54:13;;;;;;;43.13;18.67;;;;;;;;;;5071758;28;20074;-63
2021/11/07 06:56:40;;;;;;;53.80;17.88;;;;;;;;;;5071872;28;20047;-62
2021/11/07 06:59:07;;;;;;;48.15;16.85;;;;;;;;;;5072608;28;20515;-56
2021/11/07 07:01:36;;;;;;;52.88;19.15;;;;;;;;;;5071534;28;20508;-61
2021/11/07 07:04:04;;;;;;;52.45;19.23;;;;;;;;;;5071914;28;20063;-59
2021/11/07 07:06:32;;;;;;;48.92;19.13;;;;;;;;;;5071678;28;20045;-59
2021/11/07 07:09:03;;;;;;;51.53;18.67;;;;;;;;;;5072135;28;20060;-60
2021/11/07 07:11:34;;;;;;;52.03;18.63;;;;;;;;;;5072535;28;20178;-61
2021/11/07 07:14:04;;;;;;;48.17;19.35;;;;;;;;;;5076147;28;20090;-57
2021/11/07 07:16:39;;;;;;;52.97;20.90;;;;;;;;;;5075494;28;20052;-57
2021/11/07 07:22:00;;;;;;;50.53;19.30;;;;;;;;;;5075328;28;20060;-62
2021/11/07 07:32:58;;;;;;;50.50;19.63;;;;;;;;;;5128878;22;20078;-84
2021/11/07 07:35:27;;;;;;;55.90;20.40;;;;;;;;;;5100434;28;20056;-84
2021/11/07 07:37:54;;;;;;;47.03;19.95;;;;;;;;;;5100717;28;20066;-82
2021/11/07 07:40:21;;;;;;;51.03;18.67;;;;;;;;;;5100864;28;20055;-83
2021/11/07 07:42:52;;;;;;;48.63;18.75;;;;;;;;;;5100986;28;20058;-83
2021/11/07 07:45:19;;;;;;;48.58;19.27;;;;;;;;;;5101346;28;20052;-82
2021/11/07 07:47:45;;;;;;;49.75;19.73;;;;;;;;;;5101718;28;20123;-83
2021/11/07 07:50:15;;;;;;;53.83;20.73;;;;;;;;;;5101222;28;20069;-84
2021/11/07 07:52:42;;;;;;;48.13;20.13;;;;;;;;;;5100559;28;20056;-84
2021/11/07 07:55:10;;;;;;;50.65;19.77;;;;;;;;;;5100229;28;20442;-84
2021/11/07 07:57:38;;;;;;;52.75;20.40;;;;;;;;;;5101212;28;20044;-83
2021/11/07 08:00:14;;;;;;;47.45;18.50;;;;;;;;;;5101494;28;20044;-83
2021/11/07 08:02:43;;;;;;;50.10;19.27;;;;;;;;;;5100763;28;20044;-84
2021/11/07 08:05:10;;;;;;;56.05;19.67;;;;;;;;;;5100335;28;20044;-84
2021/11/07 08:07:37;;;;;;;46.42;18.63;;;;;;;;;;5100186;28;20071;-84
2021/11/07 08:10:05;;;;;;;48.08;19.73;;;;;;;;;;5100176;28;20055;-82
2021/11/07 08:12:32;;;;;;;48.83;18.80;;;;;;;;;;5099662;28;20051;-82
2021/11/07 08:15:00;;;;;;;48.97;18.80;;;;;;;;;;5102249;28;20056;-83
2021/11/07 08:17:30;;;;;;;48.70;19.38;;;;;;;;;;5104853;28;20051;-84
2021/11/07 08:19:57;;;;;;;46.70;19.45;;;;;;;;;;5098391;28;20048;-83
2021/11/07 08:22:27;;;;;;;47.05;18.35;;;;;;;;;;5098427;28;20111;-84
2021/11/07 08:25:10;;;;;;;43.07;18.50;;;;;;;;;;5098789;28;20059;-84
2021/11/07 08:27:37;;;;;;;46.65;18.80;;;;;;;;;;5100445;28;20185;-83
2021/11/07 08:30:05;;;;;;;42.78;17.52;;;;;;;;;;5100129;28;20159;-84
2021/11/07 08:32:33;;;;;;;39.33;16.08;;;;;;;;;;5099755;28;20131;-84
2021/11/07 08:35:02;;;;;;;38.28;16.90;;;;;;;;;;5099209;28;20055;-83
2021/11/07 08:37:35;;;;;;;39.95;16.10;;;;;;;;;;5100700;28;20067;-82
2021/11/07 08:40:08;;;;;;;34.10;15.25;;;;;;;;;;5100034;28;20105;-83
2021/11/07 08:42:39;;;;;;;38.47;16.08;;;;;;;;;;5099828;28;20058;-83
2021/11/07 09:02:36;;;;;;;31.35;13.60;;;;;;;;;;5100540;28;20591;-84
2021/11/07 09:05:18;;;;;;;33.28;14.50;;;;;;;;;;5099928;28;20055;-83
2021/11/07 09:07:59;;;;;;;34.13;13.70;;;;;;;;;;5100445;28;20063;-83
2021/11/07 09:10:33;;;;;;;31.73;13.52;;;;;;;;;;5102455;28;20051;-82
2021/11/07 09:13:06;;;;;;;31.60;13.45;;;;;;;;;;5103629;28;20052;-84
2021/11/07 09:15:53;;;;;;;28.95;12.68;;;;;;;;;;5100375;28;20076;-83
2021/11/07 09:18:25;;;;;;;26.02;11.30;;;;;;;;;;5101146;28;20067;-83
2021/11/07 09:21:06;;;;;;;26.55;11.70;;;;;;;;;;5099195;28;20473;-84
2021/11/07 09:23:48;;;;;;;27.00;11.45;;;;;;;;;;5096964;28;20046;-84
2021/11/07 09:26:30;;;;;;;23.65;11.10;;;;;;;;;;5097593;28;20101;-83
2021/11/07 09:29:03;;;;;;;25.65;10.63;;;;;;;;;;5098684;28;20040;-84
2021/11/07 09:34:25;;;;;;;21.52;9.75;;;;;;;;;;5035529;28;20084;-83
2021/11/07 09:37:02;;;;;;;21.30;9.32;;;;;;;;;;5103438;28;20131;-83
2021/11/07 09:44:45;;;;;;;18.40;8.23;;;;;;;;;;5099489;28;20606;-83
2021/11/07 09:47:15;;;;;;;17.48;7.85;;;;;;;;;;5102590;28;20103;-83
2021/11/07 09:49:52;;;;;;;13.68;7.07;;;;;;;;;;5099547;28;20052;-83
2021/11/07 09:52:26;;;;;;;15.23;7.00;;;;;;;;;;5099437;28;20040;-83
2021/11/07 09:54:58;;;;;;;14.30;7.07;;;;;;;;;;5098307;28;20054;-83
2021/11/07 09:57:26;;;;;;;15.27;7.63;;;;;;;;;;5105136;28;20405;-83
2021/11/07 09:59:56;;;;;;;13.25;6.43;;;;;;;;;;5106346;28;20097;-83
2021/11/07 10:02:23;;;;;;;14.40;6.88;;;;;;;;;;5104234;28;20052;-82
2021/11/07 10:04:51;;;;;;;12.73;6.07;;;;;;;;;;5099336;28;20063;-82
2021/11/07 10:07:23;;;;;;;13.73;6.38;;;;;;;;;;5097397;28;20048;-83
2021/11/07 10:09:54;;;;;;;11.43;5.78;;;;;;;;;;5097616;28;20540;-83
2021/11/07 10:12:28;;;;;;;11.63;5.43;;;;;;;;;;5098025;28;20040;-83
2021/11/07 10:15:04;;;;;;;9.82;4.95;;;;;;;;;;5098692;28;20048;-83
2021/11/07 10:17:36;;;;;;;11.20;5.45;;;;;;;;;;5102372;28;20101;-83
2021/11/07 10:20:25;;;;;;;10.43;4.95;;;;;;;;;;5100597;28;20450;-83
2021/11/07 10:22:58;;;;;;;13.27;5.85;;;;;;;;;;5100216;28;20056;-83
2021/11/07 10:25:42;;;;;;;12.18;5.50;;;;;;;;;;5108588;22;20043;-78
2021/11/07 10:28:18;;;;;;;11.05;5.43;;;;;;;;;;5035429;28;20099;-78
2021/11/07 10:30:48;;;;;;;14.85;6.22;;;;;;;;;;5036377;28;20049;-78
2021/11/07 10:33:37;;;;;;;13.32;6.07;;;;;;;;;;5036028;28;20593;-78
2021/11/07 10:39:26;;;;;;;12.95;5.93;;;;;;;;;;5055740;28;20558;-78
2021/11/07 10:45:05;;;;;;;11.05;5.53;;;;;;;;;;5057486;28;20044;-80
2021/11/07 10:53:01;;;;;;;14.30;5.22;;;;;;;;;;5057256;28;19927;-78
2021/11/07 10:55:33;;;;;;;13.18;5.45;;;;;;;;;;5056443;28;20048;-80
2021/11/07 10:58:03;;;;;;;14.55;6.43;;;;;;;;;;5057623;28;20049;-78
2021/11/07 11:00:32;;;;;;;10.45;5.53;;;;;;;;;;5057192;28;20075;-79
2021/11/07 11:03:01;;;;;;;12.10;5.75;;;;;;;;;;5056650;28;20060;-80
2021/11/07 11:05:37;;;;;;;10.23;5.07;;;;;;;;;;5056753;28;20041;-80
2021/11/07 11:08:10;;;;;;;9.70;4.60;;;;;;;;;;5057121;28;20048;-79
2021/11/07 11:10:48;;;;;;;11.43;5.53;;;;;;;;;;5057643;28;20057;-79
2021/11/07 11:13:21;;;;;;;8.40;4.43;;;;;;;;;;5056864;28;20054;-79
2021/11/07 11:16:14;;;;;;;10.48;4.65;;;;;;;;;;5056395;28;20049;-78
2021/11/07 11:24:47;;;;;;;9.43;4.90;;;;;;;;;;5057053;28;20052;-78
2021/11/07 11:30:05;;;;;;;9.60;4.57;;;;;;;;;;5053152;28;20048;-78
2021/11/07 11:32:40;;;;;;;10.65;4.80;;;;;;;;;;5056456;28;20045;-78
2021/11/07 11:35:12;;;;;;;9.77;4.65;;;;;;;;;;5056981;28;20082;-78
2021/11/07 11:37:43;;;;;;;8.88;4.20;;;;;;;;;;5066650;28;20109;-78
2021/11/07 11:40:14;;;;;;;;;;;;;;;;;;5064245;28;20503;-79
2021/11/07 11:42:49;;;;;;;8.02;4.15;;;;;;;;;;5054193;28;20601;-79
2021/11/07 11:45:22;;;;;;;12.35;5.93;;;;;;;;;;5054003;28;20049;-78
2021/11/07 11:48:11;;;;;;;8.45;4.55;;;;;;;;;;5059625;28;20110;-78
2021/11/07 11:53:45;;;;;;;9.00;4.13;;;;;;;;;;5055595;28;20045;-78
2021/11/07 11:56:25;;;;;;;9.60;4.07;;;;;;;;;;5060268;28;20049;-77
2021/11/07 11:58:58;;;;;;;8.73;3.70;;;;;;;;;;5059352;28;20072;-78
2021/11/07 12:01:28;;;;;;;7.65;4.15;;;;;;;;;;5056997;28;20053;-79
2021/11/07 12:04:09;;;;;;;17.40;10.73;;;;;;;;;;5058621;28;20067;-76
2021/11/07 12:06:46;;;;;;;9.93;4.88;;;;;;;;;;5060461;28;20433;-78
2021/11/07 12:09:23;;;;;;;9.13;4.30;;;;;;;;;;5058320;28;20056;-78
2021/11/07 12:11:54;;;;;;;8.57;3.70;;;;;;;;;;5060773;28;20041;-78
2021/11/07 12:14:29;;;;;;;8.65;4.00;;;;;;;;;;5060289;28;20048;-78
2021/11/07 12:16:58;;;;;;;8.02;3.78;;;;;;;;;;5069009;28;20109;-81
2021/11/07 12:19:37;;;;;;;8.95;4.45;;;;;;;;;;5065909;28;20049;-84
2021/11/07 12:22:17;;;;;;;10.25;4.40;;;;;;;;;;5063264;28;20048;-85
2021/11/07 12:25:09;;;;;;;12.23;5.18;;;;;;;;;;5061543;28;20075;-85
2021/11/07 12:27:43;;;;;;;10.18;4.50;;;;;;;;;;5057878;28;20439;-81
2021/11/07 12:30:26;;;;;;;10.82;4.43;;;;;;;;;;5061161;28;20118;-79
2021/11/07 12:33:03;;;;;;;64.53;24.65;;;;;;;;;;5059924;28;20069;-84
2021/11/07 12:35:36;;;;;;;9.98;4.10;;;;;;;;;;5058917;28;20056;-80
2021/11/07 12:41:02;;;;;;;8.48;3.83;;;;;;;;;;5060765;28;20107;-79
2021/11/07 12:43:42;;;;;;;8.85;4.05;;;;;;;;;;5059912;28;20076;-78
2021/11/07 12:46:31;;;;;;;7.50;3.78;;;;;;;;;;5059600;28;20080;-80
2021/11/07 12:49:00;;;;;;;8.98;3.72;;;;;;;;;;5059693;28;20053;-78
2021/11/07 12:51:35;;;;;;;8.52;3.45;;;;;;;;;;5058689;28;20061;-79
2021/11/07 12:54:09;;;;;;;8.10;3.35;;;;;;;;;;5058858;28;20503;-79
2021/11/07 12:56:48;;;;;;;8.35;3.42;;;;;;;;;;5058405;28;20503;-80
2021/11/07 12:59:19;;;;;;;7.10;2.63;;;;;;;;;;5059778;28;20060;-79
2021/11/07 13:02:03;;;;;;;7.13;3.30;;;;;;;;;;5061824;28;20075;-79
2021/11/07 13:04:32;;;;;;;10.50;4.53;;;;;;;;;;5058639;28;20083;-78
2021/11/07 13:07:02;;;;;;;8.40;3.40;;;;;;;;;;5058253;28;20091;-78
2021/11/07 13:09:37;;;;;;;9.80;4.15;;;;;;;;;;5057501;28;20511;-79
2021/11/07 13:12:13;;;;;;;6.45;3.45;;;;;;;;;;5058405;28;20049;-78
2021/11/07 13:21:07;;;;;;;7.07;2.90;;;;;;;;;;5057880;28;20052;-79
2021/11/07 13:23:52;;;;;;;10.15;3.90;;;;;;;;;;5060350;28;20412;-78
2021/11/07 13:26:29;;;;;;;9.77;4.35;;;;;;;;;;5057661;28;20128;-79
2021/11/07 13:29:06;;;;;;;9.40;4.63;;;;;;;;;;5054636;28;20044;-79
2021/11/07 13:31:45;;;;;;;10.13;5.28;;;;;;;;;;5050702;28;20535;-80
2021/11/07 13:34:17;;;;;;;10.88;4.63;;;;;;;;;;5054908;28;20053;-80
2021/11/07 13:36:47;;;;;;;9.73;4.88;;;;;;;;;;5054066;28;20049;-79
2021/11/07 13:39:24;;;;;;;11.65;6.55;;;;;;;;;;5054281;28;20045;-79
2021/11/07 13:42:06;;;;;;;9.73;4.95;;;;;;;;;;5055074;28;20065;-77
2021/11/07 13:44:44;;;;;;;9.77;4.97;;;;;;;;;;5054053;28;20049;-78
2021/11/07 13:47:11;;;;;;;10.98;4.72;;;;;;;;;;5055796;28;20424;-78
2021/11/07 13:49:48;;;;;;;9.68;5.05;;;;;;;;;;5058235;28;20426;-79
2021/11/07 13:52:15;;;;;;;9.65;4.25;;;;;;;;;;5057883;28;20044;-78
2021/11/07 13:54:42;;;;;;;8.18;4.18;;;;;;;;;;5056219;28;20049;-78
2021/11/07 13:57:11;;;;;;;6.65;3.45;;;;;;;;;;5057441;28;20450;-78
2021/11/07 13:59:41;;;;;;;8.23;3.67;;;;;;;;;;5056995;28;20079;-79
2021/11/07 14:02:19;;;;;;;9.13;4.05;;;;;;;;;;5057513;28;20053;-78
2021/11/07 14:04:49;;;;;;;7.18;3.60;;;;;;;;;;5056416;28;20524;-78
2021/11/07 14:07:19;;;;;;;7.67;3.50;;;;;;;;;;5057114;28;20048;-78
2021/11/07 14:10:01;;;;;;;10.13;3.20;;;;;;;;;;5058286;28;20136;-78
2021/11/07 14:12:35;;;;;;;9.48;4.10;;;;;;;;;;5057524;28;20473;-79
2021/11/07 14:15:16;;;;;;;7.40;3.20;;;;;;;;;;5056882;28;20056;-78
2021/11/07 14:17:44;;;;;;;7.22;3.10;;;;;;;;;;5037915;28;20045;-78
2021/11/07 14:20:33;;;;;;;7.70;3.47;;;;;;;;;;5037961;28;20049;-78
2021/11/07 14:23:06;;;;;;;8.30;4.15;;;;;;;;;;5056621;28;20052;-79
2021/11/07 14:25:33;;;;;;;6.82;3.42;;;;;;;;;;5057142;28;20059;-78
2021/11/07 14:28:17;;;;;;;6.55;3.03;;;;;;;;;;5056684;28;20057;-77
2021/11/07 14:30:44;;;;;;;8.80;3.70;;;;;;;;;;5055644;28;20056;-78
2021/11/07 14:33:14;;;;;;;7.25;3.15;;;;;;;;;;5057039;28;20135;-78
2021/11/07 14:35:48;;;;;;;6.78;3.40;;;;;;;;;;5056571;28;20128;-78
2021/11/07 14:38:20;;;;;;;8.43;3.60;;;;;;;;;;5057162;28;20068;-79
2021/11/07 14:40:54;;;;;;;7.03;3.40;;;;;;;;;;5056916;28;20041;-79
2021/11/07 14:43:28;;;;;;;9.40;3.70;;;;;;;;;;5055414;28;20064;-77
2021/11/07 14:46:07;;;;;;;7.35;3.72;;;;;;;;;;5055475;28;20045;-78
2021/11/07 14:48:55;;;;;;;7.82;3.72;;;;;;;;;;5061018;28;20191;-79
2021/11/07 14:51:45;;;;;;;7.85;3.65;;;;;;;;;;5060031;28;20045;-78
2021/11/07 14:54:24;;;;;;;8.10;3.30;;;;;;;;;;5057453;28;20045;-79
2021/11/07 14:57:03;;;;;;;9.23;4.05;;;;;;;;;;5057502;28;20056;-79
2021/11/07 14:59:35;;;;;;;12.05;4.68;;;;;;;;;;5057365;28;20049;-79
2021/11/07 15:02:22;;;;;;;9.93;4.43;;;;;;;;;;5056537;28;20167;-79
2021/11/07 15:04:52;;;;;;;9.70;4.50;;;;;;;;;;5056453;28;20078;-79
2021/11/07 15:07:30;;;;;;;7.45;4.00;;;;;;;;;;5055723;28;20057;-78
2021/11/07 15:10:20;;;;;;;12.13;4.70;;;;;;;;;;5056322;28;20045;-79
2021/11/07 15:12:57;;;;;;;8.05;4.47;;;;;;;;;;5056029;28;20041;-79
2021/11/07 15:15:40;;;;;;;7.53;3.05;;;;;;;;;;5056235;28;20144;-78
2021/11/07 15:18:40;;;;;;;5.63;2.70;;;;;;;;;;5053848;28;20538;-79
2021/11/07 15:21:15;;;;;;;8.18;3.25;;;;;;;;;;5055632;28;20645;-77
2021/11/07 15:23:45;;;;;;;8.32;3.58;;;;;;;;;;5059617;28;20077;-78
2021/11/07 15:26:20;;;;;;;7.95;4.20;;;;;;;;;;5054768;28;20052;-77
2021/11/07 15:28:55;;;;;;;8.18;3.83;;;;;;;;;;5060852;28;20095;-76
2021/11/07 15:31:22;;;;;;;7.90;3.88;;;;;;;;;;5060125;28;20126;-78
2021/11/07 15:33:49;;;;;;;7.82;3.88;;;;;;;;;;5065574;28;20049;-78
2021/11/07 15:36:26;;;;;;;8.48;3.92;;;;;;;;;;5073921;28;20482;-79
2021/11/07 15:39:11;;;;;;;9.20;3.80;;;;;;;;;;5078007;28;20044;-78
2021/11/07 15:41:39;;;;;;;10.05;4.07;;;;;;;;;;5076841;28;20094;-76
2021/11/07 15:44:10;;;;;;;8.25;3.95;;;;;;;;;;5069201;28;20080;-84
2021/11/07 15:46:42;;;;;;;8.32;4.22;;;;;;;;;;5057184;28;20052;-86
2021/11/07 15:49:13;;;;;;;8.27;4.75;;;;;;;;;;5067099;28;20064;-80
2021/11/07 15:51:48;;;;;;;;;;;;;;;;;;5072349;28;20057;-82
2021/11/07 15:54:20;;;;;;;9.90;4.05;;;;;;;;;;5070519;28;19927;-79
2021/11/07 15:56:52;;;;;;;9.02;4.57;;;;;;;;;;5070244;28;20044;-83
2021/11/07 16:02:12;;;;;;;9.20;3.95;;;;;;;;;;5040439;28;20045;-80
2021/11/07 16:04:51;;;;;;;10.43;4.93;;;;;;;;;;5058926;28;20053;-80
2021/11/07 16:07:21;;;;;;;11.02;5.45;;;;;;;;;;5063618;28;20102;-79
2021/11/07 16:10:09;;;;;;;10.48;4.63;;;;;;;;;;5060119;28;20492;-79